sensor_id;sensor_type;location;lat;lon;timestamp;temperature;humidity
64937;SHT30;51452;47.698;19.050;2023-03-25T00:00:42;17.06;54.07
64937;SHT30;51452;47.698;19.050;2023-03-25T00:03:08;16.97;54.36
64937;SHT30;51452;47.698;19.050;2023-03-25T00:05:38;16.93;54.30
64937;SHT30;51452;47.698;19.050;2023-03-25T00:08:04;16.96;54.26
64937;SHT30;51452;47.698;19.050;2023-03-25T00:10:29;16.91;54.27
64937;SHT30;51452;47.698;19.050;2023-03-25T00:12:55;16.86;53.65
64937;SHT30;51452;47.698;19.050;2023-03-25T00:15:22;16.76;54.54
64937;SHT30;51452;47.698;19.050;2023-03-25T00:17:48;16.76;54.40
64937;SHT30;51452;47.698;19.050;2023-03-25T00:20:13;16.81;54.31
64937;SHT30;51452;47.698;19.050;2023-03-25T00:22:39;16.83;54.19
64937;SHT30;51452;47.698;19.050;2023-03-25T00:25:11;16.81;52.94
64937;SHT30;51452;47.698;19.050;2023-03-25T00:27:40;16.86;53.65
64937;SHT30;51452;47.698;19.050;2023-03-25T00:30:08;16.77;52.60
64937;SHT30;51452;47.698;19.050;2023-03-25T00:32:34;16.67;53.40
64937;SHT30;51452;47.698;19.050;2023-03-25T00:34:59;16.63;53.48
64937;SHT30;51452;47.698;19.050;2023-03-25T00:37:25;16.67;53.34
64937;SHT30;51452;47.698;19.050;2023-03-25T00:39:51;16.66;53.21
64937;SHT30;51452;47.698;19.050;2023-03-25T00:42:17;16.52;54.10
64937;SHT30;51452;47.698;19.050;2023-03-25T00:44:50;16.48;54.44
64937;SHT30;51452;47.698;19.050;2023-03-25T00:47:16;16.26;55.62
64937;SHT30;51452;47.698;19.050;2023-03-25T00:49:43;16.28;56.22
64937;SHT30;51452;47.698;19.050;2023-03-25T00:52:08;16.19;56.43
64937;SHT30;51452;47.698;19.050;2023-03-25T00:54:34;16.14;56.87
64937;SHT30;51452;47.698;19.050;2023-03-25T00:57:00;16.09;57.31
64937;SHT30;51452;47.698;19.050;2023-03-25T00:59:25;16.08;57.61
64937;SHT30;51452;47.698;19.050;2023-03-25T01:01:51;15.95;58.77
64937;SHT30;51452;47.698;19.050;2023-03-25T01:04:17;15.81;59.87
64937;SHT30;51452;47.698;19.050;2023-03-25T01:06:43;15.67;60.76
64937;SHT30;51452;47.698;19.050;2023-03-25T01:09:11;15.54;61.75
64937;SHT30;51452;47.698;19.050;2023-03-25T01:11:39;15.33;62.55
64937;SHT30;51452;47.698;19.050;2023-03-25T01:14:09;15.36;62.77
64937;SHT30;51452;47.698;19.050;2023-03-25T01:16:35;15.36;63.22
64937;SHT30;51452;47.698;19.050;2023-03-25T01:19:01;15.20;64.41
64937;SHT30;51452;47.698;19.050;2023-03-25T01:21:27;15.06;65.16
64937;SHT30;51452;47.698;19.050;2023-03-25T01:23:52;15.02;65.92
64937;SHT30;51452;47.698;19.050;2023-03-25T01:26:18;14.96;66.87
64937;SHT30;51452;47.698;19.050;2023-03-25T01:28:44;14.85;67.82
64937;SHT30;51452;47.698;19.050;2023-03-25T01:31:12;14.72;68.56
64937;SHT30;51452;47.698;19.050;2023-03-25T01:33:38;14.72;68.88
64937;SHT30;51452;47.698;19.050;2023-03-25T01:36:04;14.64;69.41
64937;SHT30;51452;47.698;19.050;2023-03-25T01:38:37;14.68;69.30
64937;SHT30;51452;47.698;19.050;2023-03-25T01:41:03;14.63;69.12
64937;SHT30;51452;47.698;19.050;2023-03-25T01:43:30;14.60;69.17
64937;SHT30;51452;47.698;19.050;2023-03-25T01:45:56;14.63;69.08
64937;SHT30;51452;47.698;19.050;2023-03-25T01:48:34;14.48;69.05
64937;SHT30;51452;47.698;19.050;2023-03-25T01:53:33;14.37;69.12
64937;SHT30;51452;47.698;19.050;2023-03-25T01:56:00;14.34;70.03
64937;SHT30;51452;47.698;19.050;2023-03-25T01:58:27;14.34;70.04
64937;SHT30;51452;47.698;19.050;2023-03-25T02:00:53;14.24;70.89
64937;SHT30;51452;47.698;19.050;2023-03-25T02:03:21;14.20;71.60
64937;SHT30;51452;47.698;19.050;2023-03-25T02:06:00;14.17;72.05
64937;SHT30;51452;47.698;19.050;2023-03-25T02:08:32;14.12;73.01
64937;SHT30;51452;47.698;19.050;2023-03-25T02:10:57;14.00;73.72
64937;SHT30;51452;47.698;19.050;2023-03-25T02:13:24;13.93;75.09
64937;SHT30;51452;47.698;19.050;2023-03-25T02:16:17;13.83;75.78
64937;SHT30;51452;47.698;19.050;2023-03-25T02:21:34;13.42;78.15
64937;SHT30;51452;47.698;19.050;2023-03-25T02:27:32;13.11;83.25
64937;SHT30;51452;47.698;19.050;2023-03-25T02:30:30;12.47;86.75
64937;SHT30;51452;47.698;19.050;2023-03-25T02:38:52;11.70;91.28
64937;SHT30;51452;47.698;19.050;2023-03-25T02:46:55;11.67;91.96
64937;SHT30;51452;47.698;19.050;2023-03-25T02:49:28;11.67;91.34
64937;SHT30;51452;47.698;19.050;2023-03-25T02:51:55;11.64;91.75
64937;SHT30;51452;47.698;19.050;2023-03-25T02:54:24;11.68;91.32
64937;SHT30;51452;47.698;19.050;2023-03-25T02:56:52;11.63;90.85
64937;SHT30;51452;47.698;19.050;2023-03-25T02:59:22;11.57;92.05
64937;SHT30;51452;47.698;19.050;2023-03-25T03:01:49;11.44;92.76
64937;SHT30;51452;47.698;19.050;2023-03-25T03:04:15;11.33;93.45
64937;SHT30;51452;47.698;19.050;2023-03-25T03:06:42;11.26;92.99
64937;SHT30;51452;47.698;19.050;2023-03-25T03:17:18;11.33;92.81
64937;SHT30;51452;47.698;19.050;2023-03-25T03:19:57;11.35;92.61
64937;SHT30;51452;47.698;19.050;2023-03-25T03:27:57;11.12;93.40
64937;SHT30;51452;47.698;19.050;2023-03-25T03:30:37;11.07;94.00
64937;SHT30;51452;47.698;19.050;2023-03-25T03:33:10;11.09;94.18
64937;SHT30;51452;47.698;19.050;2023-03-25T03:36:05;11.02;94.28
64937;SHT30;51452;47.698;19.050;2023-03-25T03:38:50;11.06;94.76
64937;SHT30;51452;47.698;19.050;2023-03-25T03:41:19;11.04;94.06
64937;SHT30;51452;47.698;19.050;2023-03-25T03:43:53;11.00;94.20
64937;SHT30;51452;47.698;19.050;2023-03-25T03:49:00;10.99;93.78
64937;SHT30;51452;47.698;19.050;2023-03-25T03:51:39;10.95;93.66
64937;SHT30;51452;47.698;19.050;2023-03-25T03:54:12;10.97;93.23
64937;SHT30;51452;47.698;19.050;2023-03-25T03:56:44;10.99;93.53
64937;SHT30;51452;47.698;19.050;2023-03-25T03:59:44;11.02;93.14
64937;SHT30;51452;47.698;19.050;2023-03-25T04:02:27;11.03;92.75
64937;SHT30;51452;47.698;19.050;2023-03-25T04:04:54;11.07;93.53
64937;SHT30;51452;47.698;19.050;2023-03-25T04:07:39;11.16;92.92
64937;SHT30;51452;47.698;19.050;2023-03-25T04:10:21;11.19;92.64
64937;SHT30;51452;47.698;19.050;2023-03-25T04:12:54;11.14;92.53
64937;SHT30;51452;47.698;19.050;2023-03-25T04:15:21;11.14;92.71
64937;SHT30;51452;47.698;19.050;2023-03-25T04:17:47;11.13;92.02
64937;SHT30;51452;47.698;19.050;2023-03-25T04:20:14;11.07;92.42
64937;SHT30;51452;47.698;19.050;2023-03-25T04:22:40;10.96;93.04
64937;SHT30;51452;47.698;19.050;2023-03-25T04:25:10;10.96;94.09
64937;SHT30;51452;47.698;19.050;2023-03-25T04:27:37;10.99;93.19
64937;SHT30;51452;47.698;19.050;2023-03-25T04:30:07;11.04;92.59
64937;SHT30;51452;47.698;19.050;2023-03-25T04:32:33;11.03;92.41
64937;SHT30;51452;47.698;19.050;2023-03-25T04:34:59;11.02;92.15
64937;SHT30;51452;47.698;19.050;2023-03-25T04:37:25;11.10;92.43
64937;SHT30;51452;47.698;19.050;2023-03-25T04:39:51;11.00;91.57
64937;SHT30;51452;47.698;19.050;2023-03-25T04:42:24;11.10;92.12
64937;SHT30;51452;47.698;19.050;2023-03-25T04:44:52;11.14;91.53
64937;SHT30;51452;47.698;19.050;2023-03-25T04:47:22;11.16;91.48
64937;SHT30;51452;47.698;19.050;2023-03-25T04:49:48;11.12;90.75
64937;SHT30;51452;47.698;19.050;2023-03-25T04:52:13;11.13;91.00
64937;SHT30;51452;47.698;19.050;2023-03-25T04:54:43;11.22;90.78
64937;SHT30;51452;47.698;19.050;2023-03-25T04:57:11;11.24;91.51
64937;SHT30;51452;47.698;19.050;2023-03-25T04:59:37;11.24;91.29
64937;SHT30;51452;47.698;19.050;2023-03-25T05:02:03;11.20;91.60
64937;SHT30;51452;47.698;19.050;2023-03-25T05:04:32;11.24;89.90
64937;SHT30;51452;47.698;19.050;2023-03-25T05:06:57;11.28;90.95
64937;SHT30;51452;47.698;19.050;2023-03-25T05:09:23;11.33;90.58
64937;SHT30;51452;47.698;19.050;2023-03-25T05:11:52;11.50;91.87
64937;SHT30;51452;47.698;19.050;2023-03-25T05:14:20;11.44;90.93
64937;SHT30;51452;47.698;19.050;2023-03-25T05:16:46;11.38;91.13
64937;SHT30;51452;47.698;19.050;2023-03-25T05:19:13;11.45;90.68
64937;SHT30;51452;47.698;19.050;2023-03-25T05:21:40;11.40;88.80
64937;SHT30;51452;47.698;19.050;2023-03-25T05:24:08;11.35;89.95
64937;SHT30;51452;47.698;19.050;2023-03-25T05:26:38;11.38;89.91
64937;SHT30;51452;47.698;19.050;2023-03-25T05:29:06;11.44;89.78
64937;SHT30;51452;47.698;19.050;2023-03-25T05:31:32;11.37;89.41
64937;SHT30;51452;47.698;19.050;2023-03-25T05:33:58;11.38;89.69
64937;SHT30;51452;47.698;19.050;2023-03-25T05:36:23;11.45;90.51
64937;SHT30;51452;47.698;19.050;2023-03-25T05:38:51;11.47;90.06
64937;SHT30;51452;47.698;19.050;2023-03-25T05:41:19;11.51;90.35
64937;SHT30;51452;47.698;19.050;2023-03-25T05:43:45;11.58;89.11
64937;SHT30;51452;47.698;19.050;2023-03-25T05:46:15;11.64;90.61
64937;SHT30;51452;47.698;19.050;2023-03-25T05:48:41;11.64;89.05
64937;SHT30;51452;47.698;19.050;2023-03-25T05:51:17;11.54;88.13
64937;SHT30;51452;47.698;19.050;2023-03-25T05:53:47;11.57;89.06
64937;SHT30;51452;47.698;19.050;2023-03-25T05:56:14;11.50;88.02
64937;SHT30;51452;47.698;19.050;2023-03-25T05:58:42;11.48;88.51
64937;SHT30;51452;47.698;19.050;2023-03-25T06:01:09;11.50;86.94
64937;SHT30;51452;47.698;19.050;2023-03-25T06:03:35;11.38;85.71
64937;SHT30;51452;47.698;19.050;2023-03-25T06:06:00;11.45;87.02
64937;SHT30;51452;47.698;19.050;2023-03-25T06:08:27;11.45;85.29
64937;SHT30;51452;47.698;19.050;2023-03-25T06:10:54;11.51;86.67
64937;SHT30;51452;47.698;19.050;2023-03-25T06:13:25;11.55;86.92
64937;SHT30;51452;47.698;19.050;2023-03-25T06:15:50;11.61;84.93
64937;SHT30;51452;47.698;19.050;2023-03-25T06:18:23;11.61;85.40
64937;SHT30;51452;47.698;19.050;2023-03-25T06:20:50;11.61;84.98
64937;SHT30;51452;47.698;19.050;2023-03-25T06:23:16;11.55;84.77
64937;SHT30;51452;47.698;19.050;2023-03-25T06:25:43;11.57;84.91
64937;SHT30;51452;47.698;19.050;2023-03-25T06:28:08;11.57;83.64
64937;SHT30;51452;47.698;19.050;2023-03-25T06:30:34;11.57;84.48
64937;SHT30;51452;47.698;19.050;2023-03-25T06:32:59;11.55;83.33
64937;SHT30;51452;47.698;19.050;2023-03-25T06:35:27;11.60;83.05
64937;SHT30;51452;47.698;19.050;2023-03-25T06:37:52;11.57;82.95
64937;SHT30;51452;47.698;19.050;2023-03-25T06:40:18;11.60;82.42
64937;SHT30;51452;47.698;19.050;2023-03-25T06:42:45;11.65;81.48
64937;SHT30;51452;47.698;19.050;2023-03-25T06:45:11;11.67;81.50
64937;SHT30;51452;47.698;19.050;2023-03-25T06:47:38;11.67;79.60
64937;SHT30;51452;47.698;19.050;2023-03-25T06:50:03;11.77;81.09
64937;SHT30;51452;47.698;19.050;2023-03-25T06:52:29;11.85;80.74
64937;SHT30;51452;47.698;19.050;2023-03-25T06:54:54;11.98;81.64
64937;SHT30;51452;47.698;19.050;2023-03-25T06:57:20;12.06;79.80
64937;SHT30;51452;47.698;19.050;2023-03-25T06:59:45;12.11;80.23
64937;SHT30;51452;47.698;19.050;2023-03-25T07:02:13;12.22;78.68
64937;SHT30;51452;47.698;19.050;2023-03-25T07:04:39;12.28;79.79
64937;SHT30;51452;47.698;19.050;2023-03-25T07:07:05;12.36;78.04
64937;SHT30;51452;47.698;19.050;2023-03-25T07:09:30;12.47;78.60
64937;SHT30;51452;47.698;19.050;2023-03-25T07:11:56;12.59;77.56
64937;SHT30;51452;47.698;19.050;2023-03-25T07:14:21;12.66;75.74
64937;SHT30;51452;47.698;19.050;2023-03-25T07:16:47;12.84;76.24
64937;SHT30;51452;47.698;19.050;2023-03-25T07:19:12;12.95;77.95
64937;SHT30;51452;47.698;19.050;2023-03-25T07:21:38;13.01;75.94
64937;SHT30;51452;47.698;19.050;2023-03-25T07:24:03;12.97;74.32
64937;SHT30;51452;47.698;19.050;2023-03-25T07:26:29;13.08;76.69
64937;SHT30;51452;47.698;19.050;2023-03-25T07:28:54;13.14;76.42
64937;SHT30;51452;47.698;19.050;2023-03-25T07:31:20;13.03;74.88
64937;SHT30;51452;47.698;19.050;2023-03-25T07:33:45;13.08;74.15
64937;SHT30;51452;47.698;19.050;2023-03-25T07:36:11;13.16;75.87
64937;SHT30;51452;47.698;19.050;2023-03-25T07:38:37;13.08;72.68
64937;SHT30;51452;47.698;19.050;2023-03-25T07:41:11;13.07;72.93
64937;SHT30;51452;47.698;19.050;2023-03-25T07:43:38;13.03;72.90
64937;SHT30;51452;47.698;19.050;2023-03-25T07:46:03;13.00;72.06
64937;SHT30;51452;47.698;19.050;2023-03-25T07:48:29;13.11;71.76
64937;SHT30;51452;47.698;19.050;2023-03-25T07:50:55;13.21;71.55
64937;SHT30;51452;47.698;19.050;2023-03-25T07:53:20;13.34;71.59
64937;SHT30;51452;47.698;19.050;2023-03-25T07:55:46;13.39;69.76
64937;SHT30;51452;47.698;19.050;2023-03-25T07:58:15;13.41;70.65
64937;SHT30;51452;47.698;19.050;2023-03-25T08:00:40;13.31;69.18
64937;SHT30;51452;47.698;19.050;2023-03-25T08:03:06;13.28;70.40
64937;SHT30;51452;47.698;19.050;2023-03-25T08:05:33;13.36;69.49
64937;SHT30;51452;47.698;19.050;2023-03-25T08:07:59;13.58;69.46
64937;SHT30;51452;47.698;19.050;2023-03-25T08:10:25;13.72;68.07
64937;SHT30;51452;47.698;19.050;2023-03-25T08:12:51;13.86;69.72
64937;SHT30;51452;47.698;19.050;2023-03-25T08:15:18;13.91;66.60
64937;SHT30;51452;47.698;19.050;2023-03-25T08:17:44;14.10;67.83
64937;SHT30;51452;47.698;19.050;2023-03-25T08:20:10;14.16;66.70
64937;SHT30;51452;47.698;19.050;2023-03-25T08:22:35;14.27;65.26
64937;SHT30;51452;47.698;19.050;2023-03-25T08:25:01;14.40;65.15
64937;SHT30;51452;47.698;19.050;2023-03-25T08:27:26;14.49;67.47
64937;SHT30;51452;47.698;19.050;2023-03-25T08:29:52;14.51;66.13
64937;SHT30;51452;47.698;19.050;2023-03-25T08:32:21;14.48;65.82
64937;SHT30;51452;47.698;19.050;2023-03-25T08:34:47;14.60;66.68
64937;SHT30;51452;47.698;19.050;2023-03-25T08:37:12;14.74;66.79
64937;SHT30;51452;47.698;19.050;2023-03-25T08:39:39;14.68;64.60
64937;SHT30;51452;47.698;19.050;2023-03-25T08:42:10;14.69;65.22
64937;SHT30;51452;47.698;19.050;2023-03-25T08:44:36;14.54;66.34
64937;SHT30;51452;47.698;19.050;2023-03-25T08:47:01;14.61;65.24
64937;SHT30;51452;47.698;19.050;2023-03-25T08:49:27;14.61;66.45
64937;SHT30;51452;47.698;19.050;2023-03-25T08:51:52;14.54;66.45
64937;SHT30;51452;47.698;19.050;2023-03-25T08:54:17;14.60;65.39
64937;SHT30;51452;47.698;19.050;2023-03-25T08:56:44;14.52;66.61
64937;SHT30;51452;47.698;19.050;2023-03-25T08:59:10;14.57;64.89
64937;SHT30;51452;47.698;19.050;2023-03-25T09:01:39;14.61;64.68
64937;SHT30;51452;47.698;19.050;2023-03-25T09:04:06;14.74;63.47
64937;SHT30;51452;47.698;19.050;2023-03-25T09:06:31;14.76;63.98
64937;SHT30;51452;47.698;19.050;2023-03-25T09:08:57;14.99;62.03
64937;SHT30;51452;47.698;19.050;2023-03-25T09:11:22;15.10;60.21
64937;SHT30;51452;47.698;19.050;2023-03-25T09:13:48;15.02;61.33
64937;SHT30;51452;47.698;19.050;2023-03-25T09:16:13;15.06;60.69
64937;SHT30;51452;47.698;19.050;2023-03-25T09:18:38;15.16;60.92
64937;SHT30;51452;47.698;19.050;2023-03-25T09:21:04;15.23;59.70
64937;SHT30;51452;47.698;19.050;2023-03-25T09:23:30;15.29;60.00
64937;SHT30;51452;47.698;19.050;2023-03-25T09:25:59;15.29;60.90
64937;SHT30;51452;47.698;19.050;2023-03-25T09:28:26;15.16;59.94
64937;SHT30;51452;47.698;19.050;2023-03-25T09:30:53;15.27;60.28
64937;SHT30;51452;47.698;19.050;2023-03-25T09:33:18;15.39;61.48
64937;SHT30;51452;47.698;19.050;2023-03-25T09:35:43;15.50;60.24
64937;SHT30;51452;47.698;19.050;2023-03-25T09:38:09;15.61;60.29
64937;SHT30;51452;47.698;19.050;2023-03-25T09:40:35;15.70;60.65
64937;SHT30;51452;47.698;19.050;2023-03-25T09:43:13;15.77;59.50
64937;SHT30;51452;47.698;19.050;2023-03-25T09:45:44;15.85;59.48
64937;SHT30;51452;47.698;19.050;2023-03-25T09:50:45;15.75;57.78
64937;SHT30;51452;47.698;19.050;2023-03-25T09:53:27;15.73;58.24
64937;SHT30;51452;47.698;19.050;2023-03-25T09:55:54;15.75;57.48
64937;SHT30;51452;47.698;19.050;2023-03-25T09:58:39;15.75;57.75
64937;SHT30;51452;47.698;19.050;2023-03-25T10:06:44;15.97;58.87
64937;SHT30;51452;47.698;19.050;2023-03-25T10:12:07;16.22;55.22
64937;SHT30;51452;47.698;19.050;2023-03-25T10:20:40;15.95;54.37
64937;SHT30;51452;47.698;19.050;2023-03-25T10:23:26;15.94;56.05
64937;SHT30;51452;47.698;19.050;2023-03-25T10:26:03;15.93;56.12
64937;SHT30;51452;47.698;19.050;2023-03-25T10:28:35;16.09;56.19
64937;SHT30;51452;47.698;19.050;2023-03-25T10:31:02;16.28;56.10
64937;SHT30;51452;47.698;19.050;2023-03-25T10:33:38;16.48;54.93
64937;SHT30;51452;47.698;19.050;2023-03-25T10:36:12;16.62;54.16
64937;SHT30;51452;47.698;19.050;2023-03-25T10:38:40;16.70;52.81
64937;SHT30;51452;47.698;19.050;2023-03-25T10:41:25;16.63;54.72
64937;SHT30;51452;47.698;19.050;2023-03-25T10:43:55;16.33;53.94
64937;SHT30;51452;47.698;19.050;2023-03-25T10:48:51;16.05;54.38
64937;SHT30;51452;47.698;19.050;2023-03-25T10:51:24;16.15;54.63
64937;SHT30;51452;47.698;19.050;2023-03-25T10:53:51;16.26;52.97
64937;SHT30;51452;47.698;19.050;2023-03-25T10:56:26;16.39;53.03
64937;SHT30;51452;47.698;19.050;2023-03-25T10:58:55;16.42;52.00
64937;SHT30;51452;47.698;19.050;2023-03-25T11:01:35;16.42;50.50
64937;SHT30;51452;47.698;19.050;2023-03-25T11:04:04;16.36;52.31
64937;SHT30;51452;47.698;19.050;2023-03-25T11:06:33;16.29;52.57
64937;SHT30;51452;47.698;19.050;2023-03-25T11:11:49;16.08;52.20
64937;SHT30;51452;47.698;19.050;2023-03-25T11:14:23;15.83;52.15
64937;SHT30;51452;47.698;19.050;2023-03-25T11:16:59;15.70;53.13
64937;SHT30;51452;47.698;19.050;2023-03-25T11:19:32;15.90;54.51
64937;SHT30;51452;47.698;19.050;2023-03-25T11:22:15;15.87;53.81
64937;SHT30;51452;47.698;19.050;2023-03-25T11:24:43;15.98;54.75
64937;SHT30;51452;47.698;19.050;2023-03-25T11:27:16;16.00;55.22
64937;SHT30;51452;47.698;19.050;2023-03-25T11:29:49;16.15;55.48
64937;SHT30;51452;47.698;19.050;2023-03-25T11:32:22;16.19;54.47
64937;SHT30;51452;47.698;19.050;2023-03-25T11:34:49;16.15;52.27
64937;SHT30;51452;47.698;19.050;2023-03-25T11:37:20;16.28;51.55
64937;SHT30;51452;47.698;19.050;2023-03-25T11:39:53;16.44;50.36
64937;SHT30;51452;47.698;19.050;2023-03-25T11:42:39;16.32;50.75
64937;SHT30;51452;47.698;19.050;2023-03-25T11:45:18;16.25;50.66
64937;SHT30;51452;47.698;19.050;2023-03-25T11:47:44;16.06;50.60
64937;SHT30;51452;47.698;19.050;2023-03-25T11:50:18;15.83;51.95
64937;SHT30;51452;47.698;19.050;2023-03-25T11:52:45;15.66;53.21
64937;SHT30;51452;47.698;19.050;2023-03-25T11:57:49;15.66;53.16
64937;SHT30;51452;47.698;19.050;2023-03-25T12:00:39;15.70;52.11
64937;SHT30;51452;47.698;19.050;2023-03-25T12:03:17;15.81;52.85
64937;SHT30;51452;47.698;19.050;2023-03-25T12:06:16;15.78;50.37
64937;SHT30;51452;47.698;19.050;2023-03-25T12:08:47;15.85;51.77
64937;SHT30;51452;47.698;19.050;2023-03-25T12:14:50;16.12;50.85
64937;SHT30;51452;47.698;19.050;2023-03-25T12:30:24;15.25;53.08
64937;SHT30;51452;47.698;19.050;2023-03-25T12:33:04;15.42;53.21
64937;SHT30;51452;47.698;19.050;2023-03-25T12:35:40;15.46;51.65
64937;SHT30;51452;47.698;19.050;2023-03-25T12:55:56;15.77;48.75
64937;SHT30;51452;47.698;19.050;2023-03-25T12:58:46;15.81;48.97
64937;SHT30;51452;47.698;19.050;2023-03-25T13:07:15;15.70;48.25
64937;SHT30;51452;47.698;19.050;2023-03-25T13:10:12;15.87;46.90
64937;SHT30;51452;47.698;19.050;2023-03-25T13:12:58;15.94;46.69
64937;SHT30;51452;47.698;19.050;2023-03-25T13:15:26;16.00;45.85
64937;SHT30;51452;47.698;19.050;2023-03-25T13:20:35;15.98;46.53
64937;SHT30;51452;47.698;19.050;2023-03-25T13:23:04;15.93;46.09
64937;SHT30;51452;47.698;19.050;2023-03-25T13:25:49;16.15;47.35
64937;SHT30;51452;47.698;19.050;2023-03-25T13:28:40;16.12;45.24
64937;SHT30;51452;47.698;19.050;2023-03-25T13:31:16;16.08;46.94
64937;SHT30;51452;47.698;19.050;2023-03-25T13:33:47;15.98;45.94
64937;SHT30;51452;47.698;19.050;2023-03-25T13:36:34;15.98;46.07
64937;SHT30;51452;47.698;19.050;2023-03-25T13:39:06;16.01;46.62
64937;SHT30;51452;47.698;19.050;2023-03-25T13:41:38;16.08;47.33
64937;SHT30;51452;47.698;19.050;2023-03-25T13:44:11;16.15;47.10
64937;SHT30;51452;47.698;19.050;2023-03-25T13:46:55;15.94;46.59
64937;SHT30;51452;47.698;19.050;2023-03-25T13:51:50;15.73;46.87
64937;SHT30;51452;47.698;19.050;2023-03-25T13:54:37;15.87;46.89
64937;SHT30;51452;47.698;19.050;2023-03-25T14:01:10;16.24;46.55
64937;SHT30;51452;47.698;19.050;2023-03-25T14:06:16;15.83;45.97
64937;SHT30;51452;47.698;19.050;2023-03-25T14:11:44;15.61;46.31
64937;SHT30;51452;47.698;19.050;2023-03-25T14:14:14;15.56;46.97
64937;SHT30;51452;47.698;19.050;2023-03-25T14:16:47;15.56;46.11
64937;SHT30;51452;47.698;19.050;2023-03-25T14:19:25;15.51;45.86
64937;SHT30;51452;47.698;19.050;2023-03-25T14:21:52;15.63;46.88
64937;SHT30;51452;47.698;19.050;2023-03-25T14:24:26;15.63;45.86
64937;SHT30;51452;47.698;19.050;2023-03-25T14:27:04;15.63;45.39
64937;SHT30;51452;47.698;19.050;2023-03-25T14:34:40;15.88;45.69
64937;SHT30;51452;47.698;19.050;2023-03-25T14:44:36;16.16;44.18
64937;SHT30;51452;47.698;19.050;2023-03-25T14:52:55;16.26;44.63
64937;SHT30;51452;47.698;19.050;2023-03-25T14:55:35;16.21;44.88
64937;SHT30;51452;47.698;19.050;2023-03-25T14:58:17;15.94;42.70
64937;SHT30;51452;47.698;19.050;2023-03-25T15:00:56;15.90;43.11
64937;SHT30;51452;47.698;19.050;2023-03-25T15:03:33;15.87;44.47
64937;SHT30;51452;47.698;19.050;2023-03-25T15:06:00;15.73;43.82
64937;SHT30;51452;47.698;19.050;2023-03-25T15:08:37;15.71;45.27
64937;SHT30;51452;47.698;19.050;2023-03-25T15:11:14;15.77;44.44
64937;SHT30;51452;47.698;19.050;2023-03-25T15:13:48;15.67;43.84
64937;SHT30;51452;47.698;19.050;2023-03-25T15:21:16;15.36;44.32
64937;SHT30;51452;47.698;19.050;2023-03-25T15:43:20;15.26;45.20
64937;SHT30;51452;47.698;19.050;2023-03-25T15:59:58;15.10;44.02
64937;SHT30;51452;47.698;19.050;2023-03-25T16:02:46;15.13;44.27
64937;SHT30;51452;47.698;19.050;2023-03-25T16:05:14;15.02;43.02
64937;SHT30;51452;47.698;19.050;2023-03-25T16:07:41;14.89;43.13
64937;SHT30;51452;47.698;19.050;2023-03-25T16:10:21;14.75;43.37
64937;SHT30;51452;47.698;19.050;2023-03-25T16:12:50;14.81;44.21
64937;SHT30;51452;47.698;19.050;2023-03-25T16:15:24;14.72;43.12
64937;SHT30;51452;47.698;19.050;2023-03-25T16:17:51;14.74;43.60
64937;SHT30;51452;47.698;19.050;2023-03-25T16:20:21;14.64;43.73
64937;SHT30;51452;47.698;19.050;2023-03-25T16:22:58;14.49;43.85
64937;SHT30;51452;47.698;19.050;2023-03-25T16:25:35;14.52;44.41
64937;SHT30;51452;47.698;19.050;2023-03-25T16:28:18;14.42;43.94
64937;SHT30;51452;47.698;19.050;2023-03-25T16:30:49;14.42;43.39
64937;SHT30;51452;47.698;19.050;2023-03-25T16:33:51;14.47;44.43
64937;SHT30;51452;47.698;19.050;2023-03-25T16:36:16;14.40;43.86
64937;SHT30;51452;47.698;19.050;2023-03-25T16:38:42;14.33;44.04
64937;SHT30;51452;47.698;19.050;2023-03-25T16:41:13;14.35;44.67
64937;SHT30;51452;47.698;19.050;2023-03-25T16:43:39;14.40;43.76
64937;SHT30;51452;47.698;19.050;2023-03-25T16:46:07;14.41;43.83
64937;SHT30;51452;47.698;19.050;2023-03-25T16:48:41;14.42;43.95
64937;SHT30;51452;47.698;19.050;2023-03-25T16:51:17;14.34;43.34
64937;SHT30;51452;47.698;19.050;2023-03-25T16:53:48;14.25;45.58
64937;SHT30;51452;47.698;19.050;2023-03-25T17:01:41;14.07;44.24
64937;SHT30;51452;47.698;19.050;2023-03-25T17:04:11;14.00;44.54
64937;SHT30;51452;47.698;19.050;2023-03-25T17:06:39;14.03;43.94
64937;SHT30;51452;47.698;19.050;2023-03-25T17:09:18;13.97;43.17
64937;SHT30;51452;47.698;19.050;2023-03-25T17:11:45;13.94;43.64
64937;SHT30;51452;47.698;19.050;2023-03-25T17:14:18;13.87;43.25
64937;SHT30;51452;47.698;19.050;2023-03-25T17:16:44;13.86;43.43
64937;SHT30;51452;47.698;19.050;2023-03-25T17:19:15;13.80;43.61
64937;SHT30;51452;47.698;19.050;2023-03-25T17:22:06;13.79;43.83
64937;SHT30;51452;47.698;19.050;2023-03-25T17:24:48;13.77;43.39
64937;SHT30;51452;47.698;19.050;2023-03-25T17:30:38;13.63;43.25
64937;SHT30;51452;47.698;19.050;2023-03-25T17:32:41;13.67;43.73
64937;SHT30;51452;47.698;19.050;2023-03-25T17:35:22;13.63;43.86
64937;SHT30;51452;47.698;19.050;2023-03-25T17:37:49;13.59;43.83
64937;SHT30;51452;47.698;19.050;2023-03-25T17:40:24;13.61;43.71
64937;SHT30;51452;47.698;19.050;2023-03-25T17:42:54;13.55;43.85
64937;SHT30;51452;47.698;19.050;2023-03-25T17:45:23;13.49;43.76
64937;SHT30;51452;47.698;19.050;2023-03-25T17:47:50;13.52;43.30
64937;SHT30;51452;47.698;19.050;2023-03-25T17:50:18;13.42;43.28
64937;SHT30;51452;47.698;19.050;2023-03-25T17:52:44;13.41;43.56
64937;SHT30;51452;47.698;19.050;2023-03-25T17:55:10;13.38;43.42
64937;SHT30;51452;47.698;19.050;2023-03-25T17:57:37;13.42;44.08
64937;SHT30;51452;47.698;19.050;2023-03-25T18:00:04;13.38;43.73
64937;SHT30;51452;47.698;19.050;2023-03-25T18:02:35;13.32;43.28
64937;SHT30;51452;47.698;19.050;2023-03-25T18:05:02;13.22;43.40
64937;SHT30;51452;47.698;19.050;2023-03-25T18:07:31;13.31;44.54
64937;SHT30;51452;47.698;19.050;2023-03-25T18:09:57;13.19;43.47
64937;SHT30;51452;47.698;19.050;2023-03-25T18:12:22;13.22;43.53
64937;SHT30;51452;47.698;19.050;2023-03-25T18:14:48;13.21;43.54
64937;SHT30;51452;47.698;19.050;2023-03-25T18:17:14;13.22;43.58
64937;SHT30;51452;47.698;19.050;2023-03-25T18:19:40;13.15;43.13
64937;SHT30;51452;47.698;19.050;2023-03-25T18:22:08;13.21;43.22
64937;SHT30;51452;47.698;19.050;2023-03-25T18:24:34;13.18;44.03
64937;SHT30;51452;47.698;19.050;2023-03-25T18:27:00;13.16;44.14
64937;SHT30;51452;47.698;19.050;2023-03-25T18:29:28;13.14;43.23
64937;SHT30;51452;47.698;19.050;2023-03-25T18:31:55;13.14;43.78
64937;SHT30;51452;47.698;19.050;2023-03-25T18:34:21;13.11;43.39